sensor_id;sensor_type;location;lat;lon;timestamp;pressure;altitude;pressure_sealevel;temperature;humidity
34482;BME280;20720;48.886;9.388;2024-01-06T00:00:19;97182.38;;;9.61;100.00
34482;BME280;20720;48.886;9.388;2024-01-06T00:02:46;97185.69;;;9.68;100.00
34482;BME280;20720;48.886;9.388;2024-01-06T00:05:11;97185.00;;;9.61;100.00
34482;BME280;20720;48.886;9.388;2024-01-06T00:07:37;97191.41;;;9.65;100.00
34482;BME280;20720;48.886;9.388;2024-01-06T00:10:02;97194.56;;;9.67;100.00
34482;BME280;20720;48.886;9.388;2024-01-06T00:12:28;97193.28;;;9.58;100.00
34482;BME280;20720;48.886;9.388;2024-01-06T00:14:53;97192.84;;;9.61;100.00
34482;BME280;20720;48.886;9.388;2024-01-06T00:17:18;97193.56;;;9.50;100.00
34482;BME280;20720;48.886;9.388;2024-01-06T00:19:44;97195.91;;;9.22;100.00
34482;BME280;20720;48.886;9.388;2024-01-06T00:22:09;97190.41;;;9.48;100.00
34482;BME280;20720;48.886;9.388;2024-01-06T00:24:34;97195.53;;;9.55;100.00
34482;BME280;20720;48.886;9.388;2024-01-06T00:27:00;97189.38;;;8.95;100.00
34482;BME280;20720;48.886;9.388;2024-01-06T00:29:25;97188.13;;;9.15;100.00
34482;BME280;20720;48.886;9.388;2024-01-06T00:31:50;97187.47;;;9.20;100.00
34482;BME280;20720;48.886;9.388;2024-01-06T00:34:15;97179.03;;;8.82;100.00
34482;BME280;20720;48.886;9.388;2024-01-06T00:36:41;97180.09;;;8.74;100.00
34482;BME280;20720;48.886;9.388;2024-01-06T00:39:06;97183.25;;;9.01;100.00
34482;BME280;20720;48.886;9.388;2024-01-06T00:41:31;97201.06;;;8.92;100.00
34482;BME280;20720;48.886;9.388;2024-01-06T00:43:56;97196.56;;;8.57;100.00
34482;BME280;20720;48.886;9.388;2024-01-06T00:46:22;97199.72;;;9.08;100.00
34482;BME280;20720;48.886;9.388;2024-01-06T00:48:47;97199.88;;;9.31;100.00
34482;BME280;20720;48.886;9.388;2024-01-06T00:51:12;97204.69;;;9.82;100.00
34482;BME280;20720;48.886;9.388;2024-01-06T00:53:37;97213.56;;;9.99;100.00
34482;BME280;20720;48.886;9.388;2024-01-06T00:56:03;97216.66;;;10.07;100.00
34482;BME280;20720;48.886;9.388;2024-01-06T00:58:28;97213.91;;;9.55;100.00
34482;BME280;20720;48.886;9.388;2024-01-06T01:00:54;97221.94;;;9.89;100.00
34482;BME280;20720;48.886;9.388;2024-01-06T01:03:19;97218.00;;;9.98;100.00
34482;BME280;20720;48.886;9.388;2024-01-06T01:05:44;97226.78;;;9.56;100.00
34482;BME280;20720;48.886;9.388;2024-01-06T01:08:09;97229.53;;;9.79;100.00
34482;BME280;20720;48.886;9.388;2024-01-06T01:10:35;97239.56;;;9.82;100.00
34482;BME280;20720;48.886;9.388;2024-01-06T01:13:00;97226.78;;;9.74;100.00
34482;BME280;20720;48.886;9.388;2024-01-06T01:15:25;97229.81;;;9.89;100.00
34482;BME280;20720;48.886;9.388;2024-01-06T01:17:50;97235.47;;;10.04;100.00
34482;BME280;20720;48.886;9.388;2024-01-06T01:20:16;97232.28;;;10.02;100.00
34482;BME280;20720;48.886;9.388;2024-01-06T01:22:41;97243.19;;;9.99;100.00
34482;BME280;20720;48.886;9.388;2024-01-06T01:25:06;97245.38;;;10.02;100.00
34482;BME280;20720;48.886;9.388;2024-01-06T01:27:33;97252.38;;;10.08;100.00
34482;BME280;20720;48.886;9.388;2024-01-06T01:29:59;97252.56;;;10.07;100.00
34482;BME280;20720;48.886;9.388;2024-01-06T01:32:25;97248.22;;;9.53;100.00
34482;BME280;20720;48.886;9.388;2024-01-06T01:34:50;97247.47;;;9.28;100.00
34482;BME280;20720;48.886;9.388;2024-01-06T01:37:15;97246.75;;;9.21;100.00
34482;BME280;20720;48.886;9.388;2024-01-06T01:39:41;97251.41;;;9.73;100.00
34482;BME280;20720;48.886;9.388;2024-01-06T01:42:06;97256.06;;;9.35;100.00
34482;BME280;20720;48.886;9.388;2024-01-06T01:44:31;97251.84;;;9.34;100.00
34482;BME280;20720;48.886;9.388;2024-01-06T01:46:57;97261.00;;;9.43;100.00
34482;BME280;20720;48.886;9.388;2024-01-06T01:49:23;97267.72;;;9.75;100.00
34482;BME280;20720;48.886;9.388;2024-01-06T01:51:49;97265.09;;;9.75;100.00
34482;BME280;20720;48.886;9.388;2024-01-06T01:54:15;97257.81;;;9.41;100.00
34482;BME280;20720;48.886;9.388;2024-01-06T01:56:41;97255.84;;;8.94;100.00
34482;BME280;20720;48.886;9.388;2024-01-06T01:59:13;97260.28;;;9.36;100.00
34482;BME280;20720;48.886;9.388;2024-01-06T02:01:41;97261.16;;;9.30;100.00
34482;BME280;20720;48.886;9.388;2024-01-06T02:04:08;97270.50;;;9.62;100.00
34482;BME280;20720;48.886;9.388;2024-01-06T02:06:33;97268.59;;;9.69;100.00
34482;BME280;20720;48.886;9.388;2024-01-06T02:08:58;97269.03;;;9.48;100.00
34482;BME280;20720;48.886;9.388;2024-01-06T02:11:23;97269.69;;;9.62;100.00
34482;BME280;20720;48.886;9.388;2024-01-06T02:13:49;97269.59;;;9.50;100.00
34482;BME280;20720;48.886;9.388;2024-01-06T02:16:14;97266.09;;;9.20;100.00
34482;BME280;20720;48.886;9.388;2024-01-06T02:18:39;97268.59;;;9.51;100.00
34482;BME280;20720;48.886;9.388;2024-01-06T02:21:06;97271.66;;;9.66;100.00
34482;BME280;20720;48.886;9.388;2024-01-06T02:23:34;97275.44;;;9.34;100.00
34482;BME280;20720;48.886;9.388;2024-01-06T02:26:00;97273.09;;;9.26;100.00
34482;BME280;20720;48.886;9.388;2024-01-06T02:28:25;97278.78;;;9.41;100.00
34482;BME280;20720;48.886;9.388;2024-01-06T02:30:50;97285.19;;;9.45;100.00
34482;BME280;20720;48.886;9.388;2024-01-06T02:33:15;97282.59;;;9.63;100.00
34482;BME280;20720;48.886;9.388;2024-01-06T02:35:41;97293.34;;;9.73;100.00
34482;BME280;20720;48.886;9.388;2024-01-06T02:38:07;97296.78;;;9.74;100.00
34482;BME280;20720;48.886;9.388;2024-01-06T02:40:33;97297.59;;;9.74;100.00
34482;BME280;20720;48.886;9.388;2024-01-06T02:42:59;97302.31;;;9.66;100.00
34482;BME280;20720;48.886;9.388;2024-01-06T02:45:24;97305.16;;;9.64;100.00
34482;BME280;20720;48.886;9.388;2024-01-06T02:47:49;97303.84;;;9.73;100.00
34482;BME280;20720;48.886;9.388;2024-01-06T02:50:14;97302.47;;;9.71;100.00
34482;BME280;20720;48.886;9.388;2024-01-06T02:52:40;97304.44;;;9.57;100.00
34482;BME280;20720;48.886;9.388;2024-01-06T02:55:05;97302.91;;;9.49;100.00
34482;BME280;20720;48.886;9.388;2024-01-06T02:57:31;97300.94;;;9.63;100.00
34482;BME280;20720;48.886;9.388;2024-01-06T02:59:56;97298.34;;;9.63;100.00
34482;BME280;20720;48.886;9.388;2024-01-06T03:02:22;97301.09;;;9.68;100.00
34482;BME280;20720;48.886;9.388;2024-01-06T03:04:47;97297.44;;;9.69;100.00
34482;BME280;20720;48.886;9.388;2024-01-06T03:07:12;97306.09;;;9.70;100.00
34482;BME280;20720;48.886;9.388;2024-01-06T03:09:38;97308.38;;;9.66;100.00
34482;BME280;20720;48.886;9.388;2024-01-06T03:12:06;97308.81;;;9.63;100.00
34482;BME280;20720;48.886;9.388;2024-01-06T03:14:35;97307.69;;;9.52;100.00
34482;BME280;20720;48.886;9.388;2024-01-06T03:17:01;97311.44;;;9.20;100.00
34482;BME280;20720;48.886;9.388;2024-01-06T03:19:27;97314.69;;;9.40;100.00
34482;BME280;20720;48.886;9.388;2024-01-06T03:21:53;97308.81;;;9.81;100.00
34482;BME280;20720;48.886;9.388;2024-01-06T03:24:19;97309.31;;;9.54;100.00
34482;BME280;20720;48.886;9.388;2024-01-06T03:26:44;97309.69;;;9.57;100.00
34482;BME280;20720;48.886;9.388;2024-01-06T03:29:09;97309.50;;;9.34;100.00
34482;BME280;20720;48.886;9.388;2024-01-06T03:31:35;97306.16;;;9.02;100.00
34482;BME280;20720;48.886;9.388;2024-01-06T03:34:00;97311.03;;;9.41;100.00
34482;BME280;20720;48.886;9.388;2024-01-06T03:36:25;97310.22;;;9.41;100.00
34482;BME280;20720;48.886;9.388;2024-01-06T03:38:50;97308.81;;;9.63;100.00
34482;BME280;20720;48.886;9.388;2024-01-06T03:41:16;97312.31;;;9.57;100.00
34482;BME280;20720;48.886;9.388;2024-01-06T03:43:41;97309.19;;;9.24;100.00
34482;BME280;20720;48.886;9.388;2024-01-06T03:46:06;97302.47;;;9.10;100.00
34482;BME280;20720;48.886;9.388;2024-01-06T03:48:31;97303.53;;;9.27;100.00
34482;BME280;20720;48.886;9.388;2024-01-06T03:50:58;97304.47;;;9.32;100.00
34482;BME280;20720;48.886;9.388;2024-01-06T03:53:24;97300.50;;;9.48;100.00
34482;BME280;20720;48.886;9.388;2024-01-06T03:55:49;97303.69;;;9.50;100.00
34482;BME280;20720;48.886;9.388;2024-01-06T03:58:14;97306.75;;;9.47;100.00
34482;BME280;20720;48.886;9.388;2024-01-06T04:00:39;97310.69;;;9.38;100.00
34482;BME280;20720;48.886;9.388;2024-01-06T04:03:04;97305.44;;;9.38;100.00
34482;BME280;20720;48.886;9.388;2024-01-06T04:05:31;97316.50;;;9.40;100.00
34482;BME280;20720;48.886;9.388;2024-01-06T04:07:56;97315.59;;;9.28;100.00
34482;BME280;20720;48.886;9.388;2024-01-06T04:10:21;97318.94;;;9.17;100.00
34482;BME280;20720;48.886;9.388;2024-01-06T04:12:47;97322.84;;;9.32;100.00
34482;BME280;20720;48.886;9.388;2024-01-06T04:15:12;97317.63;;;9.26;100.00
34482;BME280;20720;48.886;9.388;2024-01-06T04:17:37;97318.22;;;9.03;100.00
34482;BME280;20720;48.886;9.388;2024-01-06T04:20:02;97326.31;;;8.71;100.00
34482;BME280;20720;48.886;9.388;2024-01-06T04:22:29;97320.81;;;8.85;100.00
34482;BME280;20720;48.886;9.388;2024-01-06T04:24:54;97320.09;;;8.72;100.00
34482;BME280;20720;48.886;9.388;2024-01-06T04:27:19;97323.81;;;9.13;100.00
34482;BME280;20720;48.886;9.388;2024-01-06T04:29:44;97326.50;;;8.76;100.00
34482;BME280;20720;48.886;9.388;2024-01-06T04:32:10;97321.78;;;8.60;100.00
34482;BME280;20720;48.886;9.388;2024-01-06T04:34:35;97330.66;;;8.59;100.00
34482;BME280;20720;48.886;9.388;2024-01-06T04:37:00;97330.69;;;9.08;100.00
34482;BME280;20720;48.886;9.388;2024-01-06T04:39:25;97333.28;;;8.59;100.00
34482;BME280;20720;48.886;9.388;2024-01-06T04:41:51;97324.16;;;8.30;100.00
34482;BME280;20720;48.886;9.388;2024-01-06T04:44:19;97338.19;;;8.42;100.00
34482;BME280;20720;48.886;9.388;2024-01-06T04:46:45;97335.16;;;8.45;100.00
34482;BME280;20720;48.886;9.388;2024-01-06T04:49:10;97334.34;;;8.44;100.00
34482;BME280;20720;48.886;9.388;2024-01-06T04:51:35;97340.69;;;8.93;100.00
34482;BME280;20720;48.886;9.388;2024-01-06T04:54:00;97341.53;;;8.55;100.00
34482;BME280;20720;48.886;9.388;2024-01-06T04:56:26;97342.75;;;8.84;100.00
34482;BME280;20720;48.886;9.388;2024-01-06T04:58:51;97344.25;;;8.74;100.00
34482;BME280;20720;48.886;9.388;2024-01-06T05:01:16;97347.25;;;9.02;100.00
34482;BME280;20720;48.886;9.388;2024-01-06T05:03:41;97348.09;;;8.33;100.00
34482;BME280;20720;48.886;9.388;2024-01-06T05:06:07;97351.41;;;8.53;100.00
34482;BME280;20720;48.886;9.388;2024-01-06T05:08:32;97349.34;;;9.18;100.00
34482;BME280;20720;48.886;9.388;2024-01-06T05:10:57;97351.31;;;8.98;100.00
34482;BME280;20720;48.886;9.388;2024-01-06T05:13:22;97350.03;;;9.07;100.00
34482;BME280;20720;48.886;9.388;2024-01-06T05:15:48;97361.19;;;9.27;100.00
34482;BME280;20720;48.886;9.388;2024-01-06T05:18:13;97359.63;;;9.44;100.00
34482;BME280;20720;48.886;9.388;2024-01-06T05:20:38;97364.34;;;8.80;100.00
34482;BME280;20720;48.886;9.388;2024-01-06T05:23:06;97358.34;;;8.73;100.00
34482;BME280;20720;48.886;9.388;2024-01-06T05:25:31;97365.47;;;9.46;100.00
34482;BME280;20720;48.886;9.388;2024-01-06T05:27:56;97378.28;;;9.54;100.00
34482;BME280;20720;48.886;9.388;2024-01-06T05:30:21;97378.72;;;9.69;100.00
34482;BME280;20720;48.886;9.388;2024-01-06T05:32:47;97373.66;;;9.74;100.00
34482;BME280;20720;48.886;9.388;2024-01-06T05:35:12;97378.28;;;9.54;100.00
34482;BME280;20720;48.886;9.388;2024-01-06T05:37:37;97382.25;;;9.63;100.00
34482;BME280;20720;48.886;9.388;2024-01-06T05:40:03;97385.25;;;9.42;100.00
34482;BME280;20720;48.886;9.388;2024-01-06T05:42:29;97381.06;;;9.10;100.00
34482;BME280;20720;48.886;9.388;2024-01-06T05:44:54;97383.34;;;9.31;100.00
34482;BME280;20720;48.886;9.388;2024-01-06T05:47:20;97387.91;;;9.11;100.00
34482;BME280;20720;48.886;9.388;2024-01-06T05:49:45;97385.97;;;9.00;100.00
34482;BME280;20720;48.886;9.388;2024-01-06T05:52:10;97385.38;;;8.98;100.00
34482;BME280;20720;48.886;9.388;2024-01-06T05:54:36;97388.97;;;9.28;100.00
34482;BME280;20720;48.886;9.388;2024-01-06T05:57:01;97395.25;;;9.52;100.00
34482;BME280;20720;48.886;9.388;2024-01-06T05:59:26;97395.16;;;9.40;100.00
34482;BME280;20720;48.886;9.388;2024-01-06T06:01:51;97399.88;;;9.74;100.00
34482;BME280;20720;48.886;9.388;2024-01-06T06:04:17;97400.91;;;9.48;100.00
34482;BME280;20720;48.886;9.388;2024-01-06T06:06:43;97405.53;;;9.53;100.00
34482;BME280;20720;48.886;9.388;2024-01-06T06:09:09;97416.59;;;9.55;100.00
34482;BME280;20720;48.886;9.388;2024-01-06T06:11:35;97415.22;;;8.97;100.00
34482;BME280;20720;48.886;9.388;2024-01-06T06:14:00;97426.34;;;9.48;100.00
34482;BME280;20720;48.886;9.388;2024-01-06T06:16:28;97426.59;;;9.40;100.00
34482;BME280;20720;48.886;9.388;2024-01-06T06:18:53;97430.31;;;9.26;100.00
34482;BME280;20720;48.886;9.388;2024-01-06T06:21:18;97432.22;;;9.68;100.00
34482;BME280;20720;48.886;9.388;2024-01-06T06:23:43;97429.31;;;9.27;100.00
34482;BME280;20720;48.886;9.388;2024-01-06T06:26:09;97433.41;;;9.16;100.00
34482;BME280;20720;48.886;9.388;2024-01-06T06:28:37;97434.88;;;9.37;100.00
34482;BME280;20720;48.886;9.388;2024-01-06T06:31:02;97436.28;;;9.64;100.00
34482;BME280;20720;48.886;9.388;2024-01-06T06:33:27;97435.56;;;9.75;100.00
34482;BME280;20720;48.886;9.388;2024-01-06T06:35:53;97434.13;;;9.79;100.00
34482;BME280;20720;48.886;9.388;2024-01-06T06:38:18;97444.63;;;9.79;100.00
34482;BME280;20720;48.886;9.388;2024-01-06T06:40:43;97444.69;;;9.23;100.00
34482;BME280;20720;48.886;9.388;2024-01-06T06:43:09;97437.69;;;9.42;100.00
34482;BME280;20720;48.886;9.388;2024-01-06T06:45:34;97451.19;;;9.64;100.00
34482;BME280;20720;48.886;9.388;2024-01-06T06:47:59;97443.16;;;9.65;100.00
34482;BME280;20720;48.886;9.388;2024-01-06T06:50:24;97450.09;;;8.91;100.00
34482;BME280;20720;48.886;9.388;2024-01-06T06:52:50;97457.19;;;9.21;100.00
34482;BME280;20720;48.886;9.388;2024-01-06T06:55:15;97452.13;;;8.89;100.00
34482;BME280;20720;48.886;9.388;2024-01-06T06:57:40;97459.06;;;9.39;100.00
34482;BME280;20720;48.886;9.388;2024-01-06T07:00:06;97459.16;;;9.26;100.00
34482;BME280;20720;48.886;9.388;2024-01-06T07:02:34;97465.28;;;9.13;100.00
34482;BME280;20720;48.886;9.388;2024-01-06T07:04:59;97463.78;;;9.55;100.00
34482;BME280;20720;48.886;9.388;2024-01-06T07:07:25;97467.84;;;9.51;100.00
34482;BME280;20720;48.886;9.388;2024-01-06T07:09:50;97462.06;;;9.67;100.00
34482;BME280;20720;48.886;9.388;2024-01-06T07:12:15;97469.19;;;9.60;100.00
34482;BME280;20720;48.886;9.388;2024-01-06T07:14:40;97473.66;;;9.28;100.00
34482;BME280;20720;48.886;9.388;2024-01-06T07:17:06;97468.06;;;9.49;100.00
34482;BME280;20720;48.886;9.388;2024-01-06T07:19:32;97470.13;;;9.41;100.00
34482;BME280;20720;48.886;9.388;2024-01-06T07:21:57;97478.25;;;9.64;100.00
34482;BME280;20720;48.886;9.388;2024-01-06T07:24:22;97468.44;;;9.78;100.00
34482;BME280;20720;48.886;9.388;2024-01-06T07:26:48;97480.91;;;9.82;100.00
34482;BME280;20720;48.886;9.388;2024-01-06T07:29:13;97484.66;;;9.68;100.00
34482;BME280;20720;48.886;9.388;2024-01-06T07:31:38;97484.59;;;9.75;100.00
34482;BME280;20720;48.886;9.388;2024-01-06T07:34:03;97487.19;;;9.50;100.00
34482;BME280;20720;48.886;9.388;2024-01-06T07:36:29;97489.75;;;9.63;100.00
34482;BME280;20720;48.886;9.388;2024-01-06T07:38:54;97491.03;;;9.23;100.00
34482;BME280;20720;48.886;9.388;2024-01-06T07:41:19;97496.16;;;8.61;100.00
34482;BME280;20720;48.886;9.388;2024-01-06T07:43:45;97488.19;;;8.87;100.00
34482;BME280;20720;48.886;9.388;2024-01-06T07:46:10;97486.06;;;9.46;100.00
34482;BME280;20720;48.886;9.388;2024-01-06T07:48:35;97488.38;;;9.54;100.00
34482;BME280;20720;48.886;9.388;2024-01-06T07:51:01;97488.13;;;9.87;100.00
34482;BME280;20720;48.886;9.388;2024-01-06T07:53:26;97478.59;;;9.68;100.00
34482;BME280;20720;48.886;9.388;2024-01-06T07:55:52;97493.16;;;9.88;100.00
34482;BME280;20720;48.886;9.388;2024-01-06T07:58:17;97493.44;;;9.56;100.00
34482;BME280;20720;48.886;9.388;2024-01-06T08:00:42;97493.22;;;9.57;100.00
34482;BME280;20720;48.886;9.388;2024-01-06T08:03:08;97497.41;;;9.89;100.00
34482;BME280;20720;48.886;9.388;2024-01-06T08:05:33;97494.47;;;9.79;100.00
34482;BME280;20720;48.886;9.388;2024-01-06T08:07:58;97492.75;;;9.91;100.00
34482;BME280;20720;48.886;9.388;2024-01-06T08:10:23;97495.88;;;10.00;100.00
34482;BME280;20720;48.886;9.388;2024-01-06T08:12:49;97494.34;;;10.17;100.00
34482;BME280;20720;48.886;9.388;2024-01-06T08:15:14;97503.84;;;9.93;100.00
34482;BME280;20720;48.886;9.388;2024-01-06T08:17:39;97506.38;;;9.75;100.00
34482;BME280;20720;48.886;9.388;2024-01-06T08:20:07;97503.09;;;10.11;100.00
34482;BME280;20720;48.886;9.388;2024-01-06T08:22:33;97503.53;;;10.26;100.00
34482;BME280;20720;48.886;9.388;2024-01-06T08:24:59;97500.63;;;10.34;100.00
34482;BME280;20720;48.886;9.388;2024-01-06T08:27:24;97505.06;;;10.33;100.00
34482;BME280;20720;48.886;9.388;2024-01-06T08:29:49;97510.56;;;10.07;100.00
34482;BME280;20720;48.886;9.388;2024-01-06T08:32:15;97507.44;;;10.41;100.00
34482;BME280;20720;48.886;9.388;2024-01-06T08:34:41;97506.13;;;10.51;100.00
34482;BME280;20720;48.886;9.388;2024-01-06T08:37:06;97505.75;;;10.47;98.18
34482;BME280;20720;48.886;9.388;2024-01-06T08:39:32;97518.78;;;10.35;98.95
34482;BME280;20720;48.886;9.388;2024-01-06T08:41:57;97518.13;;;10.22;99.39
34482;BME280;20720;48.886;9.388;2024-01-06T08:44:22;97518.28;;;10.02;100.00
34482;BME280;20720;48.886;9.388;2024-01-06T08:46:47;97523.25;;;10.35;100.00
34482;BME280;20720;48.886;9.388;2024-01-06T08:49:13;97519.19;;;10.57;98.85
34482;BME280;20720;48.886;9.388;2024-01-06T08:51:38;97533.97;;;10.33;99.86
34482;BME280;20720;48.886;9.388;2024-01-06T08:54:03;97532.69;;;9.93;100.00
34482;BME280;20720;48.886;9.388;2024-01-06T08:56:30;97523.50;;;10.52;98.47
34482;BME280;20720;48.886;9.388;2024-01-06T08:58:55;97531.50;;;10.57;99.00
34482;BME280;20720;48.886;9.388;2024-01-06T09:01:22;97533.25;;;10.63;98.42
34482;BME280;20720;48.886;9.388;2024-01-06T09:03:47;97534.16;;;10.75;96.69
34482;BME280;20720;48.886;9.388;2024-01-06T09:06:12;97538.97;;;10.60;97.08
34482;BME280;20720;48.886;9.388;2024-01-06T09:08:38;97545.25;;;10.77;96.16
34482;BME280;20720;48.886;9.388;2024-01-06T09:11:04;97551.78;;;10.50;98.05
34482;BME280;20720;48.886;9.388;2024-01-06T09:13:29;97537.47;;;10.64;99.61
34482;BME280;20720;48.886;9.388;2024-01-06T09:15:54;97542.38;;;10.60;99.39
34482;BME280;20720;48.886;9.388;2024-01-06T09:18:19;97546.25;;;10.76;98.29
34482;BME280;20720;48.886;9.388;2024-01-06T09:20:45;97547.72;;;10.90;97.80
34482;BME280;20720;48.886;9.388;2024-01-06T09:23:13;97555.28;;;9.94;99.83
34482;BME280;20720;48.886;9.388;2024-01-06T09:25:39;97566.53;;;10.26;100.00
34482;BME280;20720;48.886;9.388;2024-01-06T09:28:05;97560.53;;;10.43;100.00
34482;BME280;20720;48.886;9.388;2024-01-06T09:30:30;97563.53;;;10.22;100.00
34482;BME280;20720;48.886;9.388;2024-01-06T09:32:56;97557.78;;;10.75;100.00
34482;BME280;20720;48.886;9.388;2024-01-06T09:35:21;97558.94;;;10.79;100.00
34482;BME280;20720;48.886;9.388;2024-01-06T09:37:46;97562.47;;;10.73;100.00
34482;BME280;20720;48.886;9.388;2024-01-06T09:40:12;97569.22;;;10.98;99.88
34482;BME280;20720;48.886;9.388;2024-01-06T09:42:41;97572.03;;;10.85;100.00
34482;BME280;20720;48.886;9.388;2024-01-06T09:45:07;97581.09;;;10.47;99.70
34482;BME280;20720;48.886;9.388;2024-01-06T09:47:34;97577.63;;;10.89;99.23
34482;BME280;20720;48.886;9.388;2024-01-06T09:50:01;97579.34;;;11.31;95.80
34482;BME280;20720;48.886;9.388;2024-01-06T09:52:29;97593.84;;;11.22;97.68
34482;BME280;20720;48.886;9.388;2024-01-06T09:54:59;97587.91;;;11.26;98.30
34482;BME280;20720;48.886;9.388;2024-01-06T09:57:26;97593.38;;;11.25;96.86
34482;BME280;20720;48.886;9.388;2024-01-06T09:59:52;97592.50;;;11.31;99.21
34482;BME280;20720;48.886;9.388;2024-01-06T10:02:17;97586.63;;;11.47;98.62
34482;BME280;20720;48.886;9.388;2024-01-06T10:04:43;97592.16;;;11.27;100.00
34482;BME280;20720;48.886;9.388;2024-01-06T10:07:10;97587.03;;;11.62;100.00
34482;BME280;20720;48.886;9.388;2024-01-06T10:09:37;97589.25;;;11.65;100.00
34482;BME280;20720;48.886;9.388;2024-01-06T10:12:03;97581.94;;;11.49;100.00
34482;BME280;20720;48.886;9.388;2024-01-06T10:14:28;97586.53;;;11.24;100.00
34482;BME280;20720;48.886;9.388;2024-01-06T10:16:53;97582.00;;;11.31;100.00
34482;BME280;20720;48.886;9.388;2024-01-06T10:19:19;97580.81;;;11.57;100.00
34482;BME280;20720;48.886;9.388;2024-01-06T10:21:44;97587.56;;;11.53;100.00
34482;BME280;20720;48.886;9.388;2024-01-06T10:24:10;97586.44;;;11.30;100.00
34482;BME280;20720;48.886;9.388;2024-01-06T10:26:35;97584.56;;;11.19;100.00
34482;BME280;20720;48.886;9.388;2024-01-06T10:29:01;97586.63;;;11.47;100.00
34482;BME280;20720;48.886;9.388;2024-01-06T10:31:26;97596.19;;;11.60;100.00
34482;BME280;20720;48.886;9.388;2024-01-06T10:33:52;97592.84;;;11.64;100.00
34482;BME280;20720;48.886;9.388;2024-01-06T10:36:17;97588.72;;;11.27;100.00
34482;BME280;20720;48.886;9.388;2024-01-06T10:38:44;97584.34;;;11.03;100.00
34482;BME280;20720;48.886;9.388;2024-01-06T10:41:11;97588.28;;;11.12;100.00
34482;BME280;20720;48.886;9.388;2024-01-06T10:43:37;97584.84;;;10.75;100.00
34482;BME280;20720;48.886;9.388;2024-01-06T10:46:06;97594.41;;;10.70;100.00
34482;BME280;20720;48.886;9.388;2024-01-06T10:48:37;97581.94;;;10.65;100.00
34482;BME280;20720;48.886;9.388;2024-01-06T10:51:09;97585.38;;;10.84;100.00
34482;BME280;20720;48.886;9.388;2024-01-06T10:53:35;97585.94;;;11.04;100.00
34482;BME280;20720;48.886;9.388;2024-01-06T10:56:03;97586.88;;;10.12;100.00
34482;BME280;20720;48.886;9.388;2024-01-06T10:58:29;97585.53;;;10.71;100.00
34482;BME280;20720;48.886;9.388;2024-01-06T11:00:59;97591.66;;;9.84;100.00
34482;BME280;20720;48.886;9.388;2024-01-06T11:03:27;97578.56;;;10.15;100.00
34482;BME280;20720;48.886;9.388;2024-01-06T11:05:53;97580.06;;;10.29;100.00
34482;BME280;20720;48.886;9.388;2024-01-06T11:08:20;97580.00;;;10.54;100.00
34482;BME280;20720;48.886;9.388;2024-01-06T11:10:46;97572.88;;;10.61;100.00
34482;BME280;20720;48.886;9.388;2024-01-06T11:13:21;97571.81;;;10.69;100.00
34482;BME280;20720;48.886;9.388;2024-01-06T11:15:49;97572.81;;;10.50;100.00
34482;BME280;20720;48.886;9.388;2024-01-06T11:18:31;97577.63;;;10.71;100.00
34482;BME280;20720;48.886;9.388;2024-01-06T11:24:18;97573.25;;;9.66;100.00
34482;BME280;20720;48.886;9.388;2024-01-06T11:26:52;97575.84;;;9.97;100.00
34482;BME280;20720;48.886;9.388;2024-01-06T11:29:19;97569.31;;;9.82;100.00
34482;BME280;20720;48.886;9.388;2024-01-06T11:32:17;97566.03;;;10.78;100.00
34482;BME280;20720;48.886;9.388;2024-01-06T11:34:53;97563.16;;;10.43;100.00
34482;BME280;20720;48.886;9.388;2024-01-06T11:37:24;97567.28;;;10.94;100.00
34482;BME280;20720;48.886;9.388;2024-01-06T11:39:50;97557.03;;;10.50;100.00
34482;BME280;20720;48.886;9.388;2024-01-06T11:42:15;97553.84;;;10.23;100.00
34482;BME280;20720;48.886;9.388;2024-01-06T11:44:44;97558.94;;;9.62;100.00
34482;BME280;20720;48.886;9.388;2024-01-06T11:47:12;97546.38;;;8.95;100.00
34482;BME280;20720;48.886;9.388;2024-01-06T11:49:37;97547.00;;;9.97;100.00
34482;BME280;20720;48.886;9.388;2024-01-06T11:52:03;97550.22;;;9.68;100.00
34482;BME280;20720;48.886;9.388;2024-01-06T11:54:29;97542.19;;;9.32;100.00
34482;BME280;20720;48.886;9.388;2024-01-06T11:56:55;97544.72;;;9.45;100.00
34482;BME280;20720;48.886;9.388;2024-01-06T11:59:21;97536.59;;;10.33;100.00
34482;BME280;20720;48.886;9.388;2024-01-06T12:01:46;97536.25;;;10.66;100.00
34482;BME280;20720;48.886;9.388;2024-01-06T12:04:13;97542.88;;;11.05;100.00
34482;BME280;20720;48.886;9.388;2024-01-06T12:06:39;97542.50;;;10.47;100.00
34482;BME280;20720;48.886;9.388;2024-01-06T12:09:05;97542.47;;;10.90;100.00
34482;BME280;20720;48.886;9.388;2024-01-06T12:11:31;97538.59;;;10.74;100.00
34482;BME280;20720;48.886;9.388;2024-01-06T12:13:56;97541.59;;;10.60;100.00
34482;BME280;20720;48.886;9.388;2024-01-06T12:16:22;97542.16;;;10.43;100.00
34482;BME280;20720;48.886;9.388;2024-01-06T12:18:47;97536.75;;;10.93;100.00
34482;BME280;20720;48.886;9.388;2024-01-06T12:21:13;97537.16;;;9.86;100.00
34482;BME280;20720;48.886;9.388;2024-01-06T12:23:38;97536.72;;;8.96;100.00
34482;BME280;20720;48.886;9.388;2024-01-06T12:26:04;97525.13;;;10.03;100.00
34482;BME280;20720;48.886;9.388;2024-01-06T12:28:29;97532.38;;;10.51;100.00
34482;BME280;20720;48.886;9.388;2024-01-06T12:30:54;97529.31;;;10.90;100.00
34482;BME280;20720;48.886;9.388;2024-01-06T12:33:19;97529.88;;;10.37;100.00
34482;BME280;20720;48.886;9.388;2024-01-06T12:35:45;97529.97;;;10.85;100.00
34482;BME280;20720;48.886;9.388;2024-01-06T12:38:10;97524.22;;;10.77;100.00
34482;BME280;20720;48.886;9.388;2024-01-06T12:40:36;97527.25;;;11.10;100.00
34482;BME280;20720;48.886;9.388;2024-01-06T12:43:05;97530.03;;;10.97;100.00
34482;BME280;20720;48.886;9.388;2024-01-06T12:45:31;97532.66;;;10.97;100.00
34482;BME280;20720;48.886;9.388;2024-01-06T12:47:56;97525.38;;;10.99;100.00
34482;BME280;20720;48.886;9.388;2024-01-06T12:50:21;97531.53;;;10.75;100.00
34482;BME280;20720;48.886;9.388;2024-01-06T12:52:46;97531.34;;;10.33;100.00